sensor_id;sensor_type;location;lat;lon;timestamp;pressure;altitude;pressure_sealevel;temperature;humidity
30856;BME280;17570;0.000;0.000;2022-07-26T00:01:56;96704.79;;;31.78;34.67
30856;BME280;17570;0.000;0.000;2022-07-26T00:04:23;96710.67;;;31.74;34.52
30856;BME280;17570;0.000;0.000;2022-07-26T00:06:51;96715.20;;;31.64;34.58
30856;BME280;17570;0.000;0.000;2022-07-26T00:09:18;96717.88;;;31.59;34.54
30856;BME280;17570;0.000;0.000;2022-07-26T00:11:46;96707.92;;;31.54;34.70
30856;BME280;17570;0.000;0.000;2022-07-26T00:14:13;96704.15;;;31.50;34.94
30856;BME280;17570;0.000;0.000;2022-07-26T00:16:41;96705.20;;;31.44;35.14
30856;BME280;17570;0.000;0.000;2022-07-26T00:19:08;96702.23;;;31.40;34.90
30856;BME280;17570;0.000;0.000;2022-07-26T00:21:36;96702.23;;;31.40;35.25
30856;BME280;17570;0.000;0.000;2022-07-26T00:24:04;96701.11;;;31.31;35.20
30856;BME280;17570;0.000;0.000;2022-07-26T00:26:32;96696.55;;;31.32;35.34
30856;BME280;17570;0.000;0.000;2022-07-26T00:28:59;96695.70;;;31.26;35.27
30856;BME280;17570;0.000;0.000;2022-07-26T00:31:29;96694.87;;;31.20;35.28
30856;BME280;17570;0.000;0.000;2022-07-26T00:33:57;96694.84;;;31.15;35.27
30856;BME280;17570;0.000;0.000;2022-07-26T00:36:24;96694.01;;;31.15;35.39
30856;BME280;17570;0.000;0.000;2022-07-26T00:38:53;96692.41;;;31.14;35.45
30856;BME280;17570;0.000;0.000;2022-07-26T00:41:21;96686.20;;;31.08;35.50
30856;BME280;17570;0.000;0.000;2022-07-26T00:43:52;96683.80;;;31.07;35.61
30856;BME280;17570;0.000;0.000;2022-07-26T00:46:20;96685.91;;;31.05;35.49
30856;BME280;17570;0.000;0.000;2022-07-26T00:48:48;96685.91;;;31.05;35.52
30856;BME280;17570;0.000;0.000;2022-07-26T00:51:15;96680.55;;;31.05;35.66
30856;BME280;17570;0.000;0.000;2022-07-26T00:53:44;96685.91;;;31.05;35.58
30856;BME280;17570;0.000;0.000;2022-07-26T00:56:12;96688.33;;;31.01;35.62
30856;BME280;17570;0.000;0.000;2022-07-26T00:58:40;96678.64;;;31.00;35.59
30856;BME280;17570;0.000;0.000;2022-07-26T01:01:08;96681.30;;;30.95;35.57
30856;BME280;17570;0.000;0.000;2022-07-26T01:03:36;96676.39;;;30.82;35.51
30856;BME280;17570;0.000;0.000;2022-07-26T01:06:03;96669.98;;;30.83;35.47
30856;BME280;17570;0.000;0.000;2022-07-26T01:08:31;96669.15;;;30.82;35.58
30856;BME280;17570;0.000;0.000;2022-07-26T01:10:59;96669.12;;;30.77;35.70
30856;BME280;17570;0.000;0.000;2022-07-26T01:13:26;96666.41;;;30.72;35.93
30856;BME280;17570;0.000;0.000;2022-07-26T01:15:54;96659.64;;;30.64;35.53
30856;BME280;17570;0.000;0.000;2022-07-26T01:18:21;96660.18;;;30.66;35.77
30856;BME280;17570;0.000;0.000;2022-07-26T01:20:49;96654.82;;;30.66;35.73
30856;BME280;17570;0.000;0.000;2022-07-26T01:23:17;96661.72;;;30.57;36.04
30856;BME280;17570;0.000;0.000;2022-07-26T01:25:45;96660.15;;;30.61;35.95
30856;BME280;17570;0.000;0.000;2022-07-26T01:28:13;96658.27;;;30.62;35.94
30856;BME280;17570;0.000;0.000;2022-07-26T01:30:40;96652.91;;;30.62;35.90
30856;BME280;17570;0.000;0.000;2022-07-26T01:33:08;96650.47;;;30.55;35.96
30856;BME280;17570;0.000;0.000;2022-07-26T01:35:36;96648.29;;;30.52;35.94
30856;BME280;17570;0.000;0.000;2022-07-26T01:38:03;96652.01;;;30.46;36.09
30856;BME280;17570;0.000;0.000;2022-07-26T01:40:31;96655.73;;;30.45;36.06
30856;BME280;17570;0.000;0.000;2022-07-26T01:42:58;96653.62;;;30.47;36.34
30856;BME280;17570;0.000;0.000;2022-07-26T01:45:26;96658.23;;;30.57;37.50
30856;BME280;17570;0.000;0.000;2022-07-26T01:47:54;96648.83;;;30.54;37.60
30856;BME280;17570;0.000;0.000;2022-07-26T01:50:21;96643.97;;;30.46;37.52
30856;BME280;17570;0.000;0.000;2022-07-26T01:52:49;96646.08;;;30.44;37.37
30856;BME280;17570;0.000;0.000;2022-07-26T01:55:16;96646.61;;;30.41;37.27
30856;BME280;17570;0.000;0.000;2022-07-26T01:57:44;96639.88;;;30.38;37.20
30856;BME280;17570;0.000;0.000;2022-07-26T02:00:12;96646.61;;;30.41;36.99
30856;BME280;17570;0.000;0.000;2022-07-26T02:02:40;96649.02;;;30.42;36.87
30856;BME280;17570;0.000;0.000;2022-07-26T02:05:08;96642.02;;;30.36;36.93
30856;BME280;17570;0.000;0.000;2022-07-26T02:07:40;96644.94;;;30.35;36.79
30856;BME280;17570;0.000;0.000;2022-07-26T02:10:10;96650.02;;;30.31;36.72
30856;BME280;17570;0.000;0.000;2022-07-26T02:12:38;96642.48;;;30.28;36.89
30856;BME280;17570;0.000;0.000;2022-07-26T02:15:06;96639.00;;;30.28;36.77
30856;BME280;17570;0.000;0.000;2022-07-26T02:17:34;96641.11;;;30.26;36.58
30856;BME280;17570;0.000;0.000;2022-07-26T02:20:02;96638.92;;;30.17;36.76
30856;BME280;17570;0.000;0.000;2022-07-26T02:22:30;96642.68;;;30.21;36.63
30856;BME280;17570;0.000;0.000;2022-07-26T02:24:57;96638.82;;;30.12;36.70
30856;BME280;17570;0.000;0.000;2022-07-26T02:27:25;96631.31;;;30.09;36.86
30856;BME280;17570;0.000;0.000;2022-07-26T02:29:52;96635.14;;;30.13;36.64
30856;BME280;17570;0.000;0.000;2022-07-26T02:32:19;96626.50;;;30.11;36.62
30856;BME280;17570;0.000;0.000;2022-07-26T02:34:47;96633.42;;;30.07;36.81
30856;BME280;17570;0.000;0.000;2022-07-26T02:37:15;96634.76;;;30.05;36.66
30856;BME280;17570;0.000;0.000;2022-07-26T02:39:42;96635.02;;;30.03;36.86
30856;BME280;17570;0.000;0.000;2022-07-26T02:42:10;96630.70;;;30.02;36.62
30856;BME280;17570;0.000;0.000;2022-07-26T02:44:37;96636.82;;;29.97;36.79
30856;BME280;17570;0.000;0.000;2022-07-26T02:47:06;96637.89;;;29.96;36.85
30856;BME280;17570;0.000;0.000;2022-07-26T02:49:34;96634.67;;;29.94;36.98
30856;BME280;17570;0.000;0.000;2022-07-26T02:52:03;96634.95;;;29.98;36.91
30856;BME280;17570;0.000;0.000;2022-07-26T02:54:31;96648.55;;;29.91;36.96
30856;BME280;17570;0.000;0.000;2022-07-26T02:56:58;96648.28;;;29.93;37.00
30856;BME280;17570;0.000;0.000;2022-07-26T02:59:26;96641.63;;;29.95;36.91
30856;BME280;17570;0.000;0.000;2022-07-26T03:01:53;96643.50;;;29.95;36.96
30856;BME280;17570;0.000;0.000;2022-07-26T03:04:21;96644.57;;;29.94;36.88
30856;BME280;17570;0.000;0.000;2022-07-26T03:06:49;96645.88;;;29.91;36.89
30856;BME280;17570;0.000;0.000;2022-07-26T03:09:16;96647.17;;;29.89;37.03
30856;BME280;17570;0.000;0.000;2022-07-26T03:11:44;96646.09;;;29.85;37.06
30856;BME280;17570;0.000;0.000;2022-07-26T03:14:11;96639.09;;;29.84;37.02
30856;BME280;17570;0.000;0.000;2022-07-26T03:16:39;96641.23;;;29.82;37.06
30856;BME280;17570;0.000;0.000;2022-07-26T03:19:06;96641.28;;;29.87;36.94
30856;BME280;17570;0.000;0.000;2022-07-26T03:21:33;96641.23;;;29.82;36.89
30856;BME280;17570;0.000;0.000;2022-07-26T03:24:01;96636.89;;;29.76;37.17
30856;BME280;17570;0.000;0.000;2022-07-26T03:26:29;96641.18;;;29.77;37.12
30856;BME280;17570;0.000;0.000;2022-07-26T03:28:56;96649.20;;;29.77;37.05
30856;BME280;17570;0.000;0.000;2022-07-26T03:31:24;96651.52;;;29.68;37.18
30856;BME280;17570;0.000;0.000;2022-07-26T03:33:51;96651.78;;;29.66;37.21
30856;BME280;17570;0.000;0.000;2022-07-26T03:36:19;96648.79;;;29.63;37.24
30856;BME280;17570;0.000;0.000;2022-07-26T03:38:46;96647.19;;;29.62;37.23
30856;BME280;17570;0.000;0.000;2022-07-26T03:41:14;96660.56;;;29.62;37.24
30856;BME280;17570;0.000;0.000;2022-07-26T03:43:41;96654.41;;;29.61;37.43
30856;BME280;17570;0.000;0.000;2022-07-26T03:46:09;96657.08;;;29.61;37.38
30856;BME280;17570;0.000;0.000;2022-07-26T03:48:37;96657.56;;;29.58;37.51
30856;BME280;17570;0.000;0.000;2022-07-26T03:51:04;96654.89;;;29.58;37.45
30856;BME280;17570;0.000;0.000;2022-07-26T03:53:32;96657.56;;;29.58;37.52
30856;BME280;17570;0.000;0.000;2022-07-26T03:55:59;96664.27;;;29.61;37.60
30856;BME280;17570;0.000;0.000;2022-07-26T03:58:45;96661.05;;;29.59;37.74
30856;BME280;17570;0.000;0.000;2022-07-26T04:01:13;96655.24;;;29.45;38.06
30856;BME280;17570;0.000;0.000;2022-07-26T04:03:40;96654.80;;;29.53;38.04
30856;BME280;17570;0.000;0.000;2022-07-26T04:06:08;96656.19;;;29.56;38.06
30856;BME280;17570;0.000;0.000;2022-07-26T04:08:35;96652.77;;;29.60;38.06
30856;BME280;17570;0.000;0.000;2022-07-26T04:11:03;96650.40;;;29.64;38.05
30856;BME280;17570;0.000;0.000;2022-07-26T04:13:30;96655.49;;;29.65;38.14
30856;BME280;17570;0.000;0.000;2022-07-26T04:15:58;96649.59;;;29.63;38.26
30856;BME280;17570;0.000;0.000;2022-07-26T04:18:26;96650.14;;;29.65;38.32
30856;BME280;17570;0.000;0.000;2022-07-26T04:20:53;96643.49;;;29.68;38.37
30856;BME280;17570;0.000;0.000;2022-07-26T04:23:21;96644.92;;;29.76;38.31
30856;BME280;17570;0.000;0.000;2022-07-26T04:25:49;96637.98;;;29.80;38.40
30856;BME280;17570;0.000;0.000;2022-07-26T04:28:16;96636.68;;;29.82;38.34
30856;BME280;17570;0.000;0.000;2022-07-26T04:30:44;96638.06;;;29.85;38.43
30856;BME280;17570;0.000;0.000;2022-07-26T04:33:11;96636.19;;;29.85;38.45
30856;BME280;17570;0.000;0.000;2022-07-26T04:35:39;96632.44;;;29.86;38.56
30856;BME280;17570;0.000;0.000;2022-07-26T04:38:07;96637.04;;;29.91;38.62
30856;BME280;17570;0.000;0.000;2022-07-26T04:40:34;96632.80;;;29.95;38.70
30856;BME280;17570;0.000;0.000;2022-07-26T04:43:02;96637.08;;;29.96;38.76
30856;BME280;17570;0.000;0.000;2022-07-26T04:45:29;96642.22;;;30.03;38.85
30856;BME280;17570;0.000;0.000;2022-07-26T04:47:57;96637.97;;;30.07;38.84
30856;BME280;17570;0.000;0.000;2022-07-26T04:50:24;96636.14;;;30.12;39.08
30856;BME280;17570;0.000;0.000;2022-07-26T04:52:53;96633.80;;;30.16;39.10
30856;BME280;17570;0.000;0.000;2022-07-26T04:55:21;96637.63;;;30.25;39.03
30856;BME280;17570;0.000;0.000;2022-07-26T04:57:49;96636.83;;;30.24;39.32
30856;BME280;17570;0.000;0.000;2022-07-26T05:00:17;96639.72;;;30.50;40.01
30856;BME280;17570;0.000;0.000;2022-07-26T05:02:47;96634.96;;;30.62;40.10
30856;BME280;17570;0.000;0.000;2022-07-26T05:05:15;96635.05;;;30.72;40.18
30856;BME280;17570;0.000;0.000;2022-07-26T05:07:44;96633.47;;;30.77;40.08
30856;BME280;17570;0.000;0.000;2022-07-26T05:10:12;96638.59;;;30.78;40.00
30856;BME280;17570;0.000;0.000;2022-07-26T05:12:40;96633.29;;;30.88;39.73
30856;BME280;17570;0.000;0.000;2022-07-26T05:15:08;96628.23;;;30.92;39.37
30856;BME280;17570;0.000;0.000;2022-07-26T05:17:39;96622.62;;;30.98;39.61
30856;BME280;17570;0.000;0.000;2022-07-26T05:20:08;96621.30;;;31.01;39.61
30856;BME280;17570;0.000;0.000;2022-07-26T05:22:36;96625.85;;;31.06;39.73
30856;BME280;17570;0.000;0.000;2022-07-26T05:25:05;96624.02;;;31.11;39.48
30856;BME280;17570;0.000;0.000;2022-07-26T05:27:33;96624.36;;;31.25;39.72
30856;BME280;17570;0.000;0.000;2022-07-26T05:30:01;96630.33;;;31.42;39.95
30856;BME280;17570;0.000;0.000;2022-07-26T05:32:29;96627.41;;;31.49;40.04
30856;BME280;17570;0.000;0.000;2022-07-26T05:34:57;96629.03;;;31.55;39.75
30856;BME280;17570;0.000;0.000;2022-07-26T05:37:24;96622.64;;;31.66;39.07
30856;BME280;17570;0.000;0.000;2022-07-26T05:39:51;96629.91;;;31.76;39.06
30856;BME280;17570;0.000;0.000;2022-07-26T05:42:19;96623.70;;;31.75;38.94
30856;BME280;17570;0.000;0.000;2022-07-26T05:44:47;96630.47;;;31.83;38.72
30856;BME280;17570;0.000;0.000;2022-07-26T05:47:14;96619.49;;;31.90;38.34
30856;BME280;17570;0.000;0.000;2022-07-26T05:49:42;96637.73;;;31.93;38.24
30856;BME280;17570;0.000;0.000;2022-07-26T05:52:09;96613.05;;;31.96;38.30
30856;BME280;17570;0.000;0.000;2022-07-26T05:54:37;96610.89;;;31.98;38.27
30856;BME280;17570;0.000;0.000;2022-07-26T05:57:04;96604.72;;;32.03;38.54
30856;BME280;17570;0.000;0.000;2022-07-26T05:59:32;96611.44;;;32.10;38.33
30856;BME280;17570;0.000;0.000;2022-07-26T06:01:59;96607.67;;;32.16;37.93
30856;BME280;17570;0.000;0.000;2022-07-26T06:04:27;96616.81;;;32.20;37.76
30856;BME280;17570;0.000;0.000;2022-07-26T06:06:54;96613.59;;;32.23;38.05
30856;BME280;17570;0.000;0.000;2022-07-26T06:09:22;96603.66;;;32.29;38.05
30856;BME280;17570;0.000;0.000;2022-07-26T06:14:42;96601.77;;;32.35;37.63
30856;BME280;17570;0.000;0.000;2022-07-26T06:19:10;96598.50;;;32.73;38.37
30856;BME280;17570;0.000;0.000;2022-07-26T06:21:37;96593.44;;;32.57;38.76
30856;BME280;17570;0.000;0.000;2022-07-26T06:24:05;96583.98;;;32.80;38.13
30856;BME280;17570;0.000;0.000;2022-07-26T06:26:33;96585.09;;;32.58;36.06
30856;BME280;17570;0.000;0.000;2022-07-26T06:29:00;96584.59;;;32.10;36.90
30856;BME280;17570;0.000;0.000;2022-07-26T06:31:29;96589.94;;;32.61;36.82
30856;BME280;17570;0.000;0.000;2022-07-26T06:33:57;96586.12;;;32.88;36.58
30856;BME280;17570;0.000;0.000;2022-07-26T06:36:25;96584.48;;;33.02;36.17
30856;BME280;17570;0.000;0.000;2022-07-26T06:38:52;96581.77;;;33.07;36.26
30856;BME280;17570;0.000;0.000;2022-07-26T06:41:20;96579.03;;;33.17;36.28
30856;BME280;17570;0.000;0.000;2022-07-26T06:43:48;96577.12;;;33.23;36.21
30856;BME280;17570;0.000;0.000;2022-07-26T06:46:15;96576.83;;;33.24;36.13
30856;BME280;17570;0.000;0.000;2022-07-26T06:48:44;96574.94;;;33.30;35.55
30856;BME280;17570;0.000;0.000;2022-07-26T06:51:12;96574.59;;;33.42;35.10
30856;BME280;17570;0.000;0.000;2022-07-26T06:53:39;96572.45;;;33.49;34.87
30856;BME280;17570;0.000;0.000;2022-07-26T06:56:07;96567.03;;;33.54;35.35
30856;BME280;17570;0.000;0.000;2022-07-26T06:58:34;96569.66;;;33.64;35.32
30856;BME280;17570;0.000;0.000;2022-07-26T07:01:02;96574.97;;;33.74;35.67
30856;BME280;17570;0.000;0.000;2022-07-26T07:03:29;96570.59;;;33.84;35.57
30856;BME280;17570;0.000;0.000;2022-07-26T07:05:57;96570.04;;;33.87;34.77
30856;BME280;17570;0.000;0.000;2022-07-26T07:08:24;96565.69;;;33.96;34.05
30856;BME280;17570;0.000;0.000;2022-07-26T07:10:52;96568.85;;;34.03;33.55
30856;BME280;17570;0.000;0.000;2022-07-26T07:13:21;96565.05;;;34.09;33.42
30856;BME280;17570;0.000;0.000;2022-07-26T07:15:48;96566.27;;;34.22;33.93
30856;BME280;17570;0.000;0.000;2022-07-26T07:18:16;96564.56;;;34.31;33.16
30856;BME280;17570;0.000;0.000;2022-07-26T07:20:43;96563.16;;;34.39;32.81
30856;BME280;17570;0.000;0.000;2022-07-26T07:23:11;96568.77;;;34.47;32.43
30856;BME280;17570;0.000;0.000;2022-07-26T08:12:16;96555.34;;;31.05;37.09
30856;BME280;17570;0.000;0.000;2022-07-26T08:14:43;96555.27;;;32.55;32.85
30856;BME280;17570;0.000;0.000;2022-07-26T08:17:11;96554.08;;;34.30;30.45
30856;BME280;17570;0.000;0.000;2022-07-26T08:19:38;96551.14;;;35.27;29.23
30856;BME280;17570;0.000;0.000;2022-07-26T08:22:06;96548.53;;;35.78;28.36
30856;BME280;17570;0.000;0.000;2022-07-26T08:24:34;96543.75;;;36.08;27.55
30856;BME280;17570;0.000;0.000;2022-07-26T08:27:01;96545.60;;;36.26;27.35
30856;BME280;17570;0.000;0.000;2022-07-26T08:29:29;96542.13;;;36.40;26.83
30856;BME280;17570;0.000;0.000;2022-07-26T08:31:56;96547.38;;;36.50;28.06
30856;BME280;17570;0.000;0.000;2022-07-26T08:34:24;96541.59;;;36.57;25.46
30856;BME280;17570;0.000;0.000;2022-07-26T08:36:52;96535.28;;;36.61;25.28
30856;BME280;17570;0.000;0.000;2022-07-26T08:39:19;96528.87;;;36.71;24.95
30856;BME280;17570;0.000;0.000;2022-07-26T08:41:47;96533.27;;;36.81;25.53
30856;BME280;17570;0.000;0.000;2022-07-26T08:44:14;96528.06;;;36.84;24.12
30856;BME280;17570;0.000;0.000;2022-07-26T08:46:42;96527.96;;;36.89;25.28
30856;BME280;17570;0.000;0.000;2022-07-26T08:49:10;96524.55;;;36.97;24.30
30856;BME280;17570;0.000;0.000;2022-07-26T08:51:42;96527.78;;;36.99;23.73
30856;BME280;17570;0.000;0.000;2022-07-26T08:54:11;96520.83;;;37.07;23.71
30856;BME280;17570;0.000;0.000;2022-07-26T08:56:57;96519.64;;;37.13;23.60
30856;BME280;17570;0.000;0.000;2022-07-26T08:59:11;96518.41;;;37.19;24.53
30856;BME280;17570;0.000;0.000;2022-07-26T09:01:50;96522.71;;;37.20;24.73
30856;BME280;17570;0.000;0.000;2022-07-26T09:04:24;96532.34;;;37.26;26.04
30856;BME280;17570;0.000;0.000;2022-07-26T09:06:54;96527.41;;;37.28;22.91
30856;BME280;17570;0.000;0.000;2022-07-26T09:09:22;96519.69;;;37.36;22.15
30856;BME280;17570;0.000;0.000;2022-07-26T09:11:49;96515.59;;;37.38;23.47
30856;BME280;17570;0.000;0.000;2022-07-26T09:14:17;96519.97;;;37.48;22.59
30856;BME280;17570;0.000;0.000;2022-07-26T09:16:57;96509.20;;;37.57;22.47
30856;BME280;17570;0.000;0.000;2022-07-26T09:19:25;96508.77;;;37.63;22.67
30856;BME280;17570;0.000;0.000;2022-07-26T09:21:53;96509.87;;;37.62;23.89
30856;BME280;17570;0.000;0.000;2022-07-26T09:24:36;96504.21;;;37.72;21.26
30856;BME280;17570;0.000;0.000;2022-07-26T09:27:02;96501.88;;;37.79;21.47
30856;BME280;17570;0.000;0.000;2022-07-26T09:29:30;96486.74;;;37.78;20.79
30856;BME280;17570;0.000;0.000;2022-07-26T09:32:09;96495.76;;;37.88;20.58
30856;BME280;17570;0.000;0.000;2022-07-26T09:34:29;96504.42;;;37.98;18.93
30856;BME280;17570;0.000;0.000;2022-07-26T09:36:57;96498.08;;;38.03;19.24
30856;BME280;17570;0.000;0.000;2022-07-26T09:39:26;96496.82;;;38.09;21.97
30856;BME280;17570;0.000;0.000;2022-07-26T09:41:54;96491.11;;;38.11;19.04
30856;BME280;17570;0.000;0.000;2022-07-26T09:44:23;96489.53;;;38.18;19.92
30856;BME280;17570;0.000;0.000;2022-07-26T09:46:59;96491.02;;;38.24;20.38
30856;BME280;17570;0.000;0.000;2022-07-26T09:49:23;96493.59;;;38.29;20.02
30856;BME280;17570;0.000;0.000;2022-07-26T09:51:52;96493.48;;;38.35;20.08
30856;BME280;17570;0.000;0.000;2022-07-26T09:56:58;96488.25;;;38.47;20.44
30856;BME280;17570;0.000;0.000;2022-07-26T09:59:26;96485.25;;;38.48;21.55
30856;BME280;17570;0.000;0.000;2022-07-26T10:01:55;96484.30;;;38.53;21.64
30856;BME280;17570;0.000;0.000;2022-07-26T10:04:23;96484.78;;;38.55;20.30
30856;BME280;17570;0.000;0.000;2022-07-26T10:06:51;96479.56;;;38.67;20.91
30856;BME280;17570;0.000;0.000;2022-07-26T10:09:19;96482.80;;;38.78;21.08
30856;BME280;17570;0.000;0.000;2022-07-26T10:11:57;96481.08;;;38.91;20.09
30856;BME280;17570;0.000;0.000;2022-07-26T10:19:47;96474.23;;;39.11;20.43
30856;BME280;17570;0.000;0.000;2022-07-26T10:22:30;96465.47;;;39.14;20.87
30856;BME280;17570;0.000;0.000;2022-07-26T10:27:48;96473.16;;;39.38;21.53
30856;BME280;17570;0.000;0.000;2022-07-26T10:38:10;96454.41;;;39.97;19.87
30856;BME280;17570;0.000;0.000;2022-07-26T10:40:34;96447.03;;;40.06;20.82
30856;BME280;17570;0.000;0.000;2022-07-26T10:43:08;96450.55;;;40.15;20.20
30856;BME280;17570;0.000;0.000;2022-07-26T10:49:01;96441.98;;;40.34;20.11
30856;BME280;17570;0.000;0.000;2022-07-26T10:51:34;96441.26;;;40.16;21.34
30856;BME280;17570;0.000;0.000;2022-07-26T10:53:59;96448.98;;;40.44;20.05
30856;BME280;17570;0.000;0.000;2022-07-26T10:56:28;96443.36;;;40.78;21.22
30856;BME280;17570;0.000;0.000;2022-07-26T10:58:56;96443.22;;;41.04;19.52
30856;BME280;17570;0.000;0.000;2022-07-26T11:01:36;96442.41;;;41.25;19.80
30856;BME280;17570;0.000;0.000;2022-07-26T11:04:05;96437.78;;;41.46;20.10
30856;BME280;17570;0.000;0.000;2022-07-26T11:06:33;96437.02;;;41.58;20.00
30856;BME280;17570;0.000;0.000;2022-07-26T11:09:08;96438.78;;;41.75;19.96
30856;BME280;17570;0.000;0.000;2022-07-26T11:11:31;96433.63;;;41.94;19.38
30856;BME280;17570;0.000;0.000;2022-07-26T11:14:08;96431.94;;;42.14;18.88
30856;BME280;17570;0.000;0.000;2022-07-26T11:16:44;96424.72;;;42.31;20.42
30856;BME280;17570;0.000;0.000;2022-07-26T11:19:12;96418.45;;;42.42;20.28
30856;BME280;17570;0.000;0.000;2022-07-26T11:21:41;96420.95;;;42.60;20.01
30856;BME280;17570;0.000;0.000;2022-07-26T11:24:08;96417.20;;;42.76;19.67
30856;BME280;17570;0.000;0.000;2022-07-26T11:26:45;96412.25;;;42.94;19.28
30856;BME280;17570;0.000;0.000;2022-07-26T11:29:08;96407.70;;;43.11;19.47
30856;BME280;17570;0.000;0.000;2022-07-26T11:31:40;96418.13;;;43.21;19.03
30856;BME280;17570;0.000;0.000;2022-07-26T11:34:09;96405.66;;;43.36;19.12
30856;BME280;17570;0.000;0.000;2022-07-26T11:36:37;96397.44;;;43.48;18.89
30856;BME280;17570;0.000;0.000;2022-07-26T11:39:06;96389.25;;;43.64;18.52
30856;BME280;17570;0.000;0.000;2022-07-26T11:41:33;96390.34;;;43.75;18.66
30856;BME280;17570;0.000;0.000;2022-07-26T11:44:03;96382.16;;;43.91;17.26
30856;BME280;17570;0.000;0.000;2022-07-26T11:46:39;96388.68;;;44.02;16.71
30856;BME280;17570;0.000;0.000;2022-07-26T11:51:32;96381.31;;;43.30;18.27
30856;BME280;17570;0.000;0.000;2022-07-26T11:54:01;96375.05;;;43.30;18.65
30856;BME280;17570;0.000;0.000;2022-07-26T11:56:29;96369.53;;;44.02;17.12
30856;BME280;17570;0.000;0.000;2022-07-26T11:58:57;96370.36;;;44.53;18.47
30856;BME280;17570;0.000;0.000;2022-07-26T12:03:41;96365.91;;;45.00;17.18
30856;BME280;17570;0.000;0.000;2022-07-26T12:06:10;96364.52;;;45.06;18.76
30856;BME280;17570;0.000;0.000;2022-07-26T12:08:47;96358.14;;;45.41;17.67
30856;BME280;17570;0.000;0.000;2022-07-26T12:11:15;96367.73;;;45.73;19.50
30856;BME280;17570;0.000;0.000;2022-07-26T12:13:59;96368.45;;;45.90;20.10
30856;BME280;17570;0.000;0.000;2022-07-26T12:16:33;96363.98;;;46.04;19.71
30856;BME280;17570;0.000;0.000;2022-07-26T12:26:20;96356.82;;;45.54;19.71
30856;BME280;17570;0.000;0.000;2022-07-26T12:28:48;96342.33;;;46.22;19.06
30856;BME280;17570;0.000;0.000;2022-07-26T12:33:52;96348.27;;;47.11;17.92
30856;BME280;17570;0.000;0.000;2022-07-26T12:36:21;96355.49;;;47.26;17.96
30856;BME280;17570;0.000;0.000;2022-07-26T12:38:49;96348.11;;;47.31;17.85
30856;BME280;17570;0.000;0.000;2022-07-26T12:41:39;96346.84;;;47.24;16.90
30856;BME280;17570;0.000;0.000;2022-07-26T12:44:03;96344.34;;;47.12;15.50
30856;BME280;17570;0.000;0.000;2022-07-26T12:52:12;96336.36;;;44.03;19.18
30856;BME280;17570;0.000;0.000;2022-07-26T12:54:39;96332.90;;;44.73;19.23
30856;BME280;17570;0.000;0.000;2022-07-26T12:57:07;96337.73;;;46.07;18.35
30856;BME280;17570;0.000;0.000;2022-07-26T12:59:35;96331.41;;;46.83;17.46
30856;BME280;17570;0.000;0.000;2022-07-26T13:02:03;96332.27;;;47.20;17.58
30856;BME280;17570;0.000;0.000;2022-07-26T13:04:30;96334.54;;;47.48;17.59
30856;BME280;17570;0.000;0.000;2022-07-26T13:06:58;96335.53;;;47.70;17.44
30856;BME280;17570;0.000;0.000;2022-07-26T13:30:59;96333.51;;;44.16;19.86
30856;BME280;17570;0.000;0.000;2022-07-26T13:33:27;96328.72;;;45.61;18.88
30856;BME280;17570;0.000;0.000;2022-07-26T13:35:55;96327.42;;;47.44;17.50
30856;BME280;17570;0.000;0.000;2022-07-26T13:38:22;96330.70;;;48.56;15.81
30856;BME280;17570;0.000;0.000;2022-07-26T13:40:50;96325.48;;;49.17;15.17
30856;BME280;17570;0.000;0.000;2022-07-26T13:43:17;96325.17;;;49.54;15.53
30856;BME280;17570;0.000;0.000;2022-07-26T13:45:45;96336.60;;;49.70;15.45
30856;BME280;17570;0.000;0.000;2022-07-26T13:48:12;96326.38;;;49.89;15.09
30856;BME280;17570;0.000;0.000;2022-07-26T13:50:40;96329.54;;;50.05;14.93
30856;BME280;17570;0.000;0.000;2022-07-26T13:53:08;96317.72;;;50.19;14.96
30856;BME280;17570;0.000;0.000;2022-07-26T13:55:35;96319.25;;;50.34;14.89
30856;BME280;17570;0.000;0.000;2022-07-26T13:58:03;96315.28;;;50.49;14.39
30856;BME280;17570;0.000;0.000;2022-07-26T14:00:30;96317.58;;;50.69;14.54
30856;BME280;17570;0.000;0.000;2022-07-26T14:02:58;96327.80;;;50.83;14.40
30856;BME280;17570;0.000;0.000;2022-07-26T14:05:26;96325.41;;;50.92;14.14
30856;BME280;17570;0.000;0.000;2022-07-26T14:07:54;96325.38;;;51.02;13.98
30856;BME280;17570;0.000;0.000;2022-07-26T14:10:22;96328.86;;;51.14;14.12
30856;BME280;17570;0.000;0.000;2022-07-26T14:12:49;96324.89;;;51.25;13.88
30856;BME280;17570;0.000;0.000;2022-07-26T14:15:18;96312.91;;;51.39;13.43
30856;BME280;17570;0.000;0.000;2022-07-26T14:17:45;96312.45;;;51.55;13.98
30856;BME280;17570;0.000;0.000;2022-07-26T14:20:13;96311.16;;;51.67;13.54
30856;BME280;17570;0.000;0.000;2022-07-26T14:22:42;96311.87;;;51.78;14.11
30856;BME280;17570;0.000;0.000;2022-07-26T14:25:09;96310.23;;;51.84;13.35
30856;BME280;17570;0.000;0.000;2022-07-26T14:27:37;96309.86;;;51.82;14.09
30856;BME280;17570;0.000;0.000;2022-07-26T14:30:05;96304.86;;;51.63;13.64
30856;BME280;17570;0.000;0.000;2022-07-26T14:32:33;96304.61;;;51.39;13.03
30856;BME280;17570;0.000;0.000;2022-07-26T14:35:00;96297.66;;;51.13;11.57
30856;BME280;17570;0.000;0.000;2022-07-26T14:37:29;96296.23;;;50.80;11.39
30856;BME280;17570;0.000;0.000;2022-07-26T14:39:59;96301.06;;;50.44;11.13
30856;BME280;17570;0.000;0.000;2022-07-26T14:42:26;96287.33;;;49.94;11.13
30856;BME280;17570;0.000;0.000;2022-07-26T14:44:53;96288.11;;;49.51;11.32
30856;BME280;17570;0.000;0.000;2022-07-26T14:47:21;96297.11;;;49.23;11.73
30856;BME280;17570;0.000;0.000;2022-07-26T14:49:49;96280.48;;;48.98;11.72
30856;BME280;17570;0.000;0.000;2022-07-26T14:52:17;96283.16;;;48.73;12.09
30856;BME280;17570;0.000;0.000;2022-07-26T14:54:44;96288.95;;;48.50;12.56
30856;BME280;17570;0.000;0.000;2022-07-26T14:57:12;96289.96;;;48.24;12.63
30856;BME280;17570;0.000;0.000;2022-07-26T14:59:39;96287.75;;;47.93;13.12
30856;BME280;17570;0.000;0.000;2022-07-26T15:02:07;96288.01;;;47.73;13.73
30856;BME280;17570;0.000;0.000;2022-07-26T15:04:36;96283.47;;;47.51;13.69
30856;BME280;17570;0.000;0.000;2022-07-26T15:07:03;96275.39;;;47.28;13.94
30856;BME280;17570;0.000;0.000;2022-07-26T15:09:36;96285.38;;;47.06;14.59
30856;BME280;17570;0.000;0.000;2022-07-26T15:12:00;96280.34;;;46.82;14.17